Terminal Aerodrome Forecast
Issued by NWS San Angelo, TX

Home | Current Version | Previous Version | Text Only | Print | Product List | Glossary On
Versions: 1 2 3 4 5 6 7 8 9 10 11 12 13 14 15 16 17 18 19 20 21 22 23 24
000
FTUS44 KSJT 271700
TAFABI
TAF
KABI 271729Z 2718/2818 04008KT 3/4SM -SN BR SCT007 OVC015
      TEMPO 2718/2720 2SM BR OVC007
     FM272100 07010KT 1SM -FZDZSN BR OVC007
     FM280100 08008KT 2SM -FZDZ BR OVC007
     FM280900 10010KT 2SM -FZDZ BR OVC002=

USA.gov is the U.S. government's official web portal to all federal, state and local government web resources and services.